createdAt,value
2022-08-26T00:05:23.404Z,24.37
2022-08-26T00:10:46.091Z,31.60
2022-08-26T00:16:09.240Z,30.37
2022-08-26T00:21:33.174Z,28.00
2022-08-26T00:26:56.553Z,36.93
2022-08-26T00:32:19.077Z,31.87
2022-08-26T00:37:41.919Z,28.10
2022-08-26T00:43:07.137Z,32.73
2022-08-26T00:48:31.863Z,32.10
2022-08-26T00:54:02.747Z,24.70
2022-08-26T00:59:29.279Z,23.73
2022-08-26T01:04:56.929Z,25.75
2022-08-26T01:10:26.353Z,23.70
2022-08-26T01:15:52.998Z,25.33
2022-08-26T01:21:40.752Z,21.35
2022-08-26T01:27:09.792Z,21.90
2022-08-26T01:32:36.598Z,17.85
2022-08-26T01:38:02.508Z,23.87
2022-08-26T01:43:31.919Z,19.77
2022-08-26T01:48:57.154Z,19.53
2022-08-26T01:54:21.281Z,21.63
2022-08-26T01:59:45.703Z,24.30
2022-08-26T02:05:12.457Z,15.80
2022-08-26T02:10:35.809Z,21.40
2022-08-26T02:16:01.289Z,19.80
2022-08-26T02:21:25.963Z,21.12
2022-08-26T02:26:49.109Z,19.30
2022-08-26T02:32:13.786Z,16.25
2022-08-26T02:37:39.782Z,19.73
2022-08-26T02:43:03.844Z,18.03
2022-08-26T02:48:30.822Z,19.40
2022-08-26T02:53:53.077Z,20.93
2022-08-26T02:59:15.902Z,21.77
2022-08-26T03:04:38.467Z,23.42
2022-08-26T03:10:01.489Z,20.48
2022-08-26T03:15:30.023Z,19.57
2022-08-26T03:20:54.254Z,18.07
2022-08-26T03:26:18.015Z,19.60
2022-08-26T03:31:41.254Z,21.23
2022-08-26T03:37:05.356Z,22.07
2022-08-26T03:42:28.946Z,19.00
2022-08-26T03:47:52.568Z,20.63
2022-08-26T03:53:17.780Z,21.35
2022-08-26T03:58:42.929Z,19.37
2022-08-26T04:04:07.182Z,23.90
2022-08-26T04:09:32.589Z,19.77
2022-08-26T04:14:57.371Z,19.45
2022-08-26T04:20:21.042Z,18.20
2022-08-26T04:25:43.373Z,22.53
2022-08-26T04:31:05.641Z,22.07
2022-08-26T04:36:29.288Z,22.05
2022-08-26T04:41:54.026Z,17.07
2022-08-26T04:47:17.464Z,17.77
2022-08-26T04:52:43.135Z,19.03
2022-08-26T04:58:07.477Z,22.80
2022-08-26T05:03:32.474Z,18.17
2022-08-26T05:08:55.072Z,23.90
2022-08-26T05:14:18.416Z,23.97
2022-08-26T05:19:42.828Z,19.60
2022-08-26T05:25:05.528Z,15.43
2022-08-26T05:30:28.741Z,17.77
2022-08-26T05:35:51.926Z,18.77
2022-08-26T05:41:22.022Z,15.30
2022-08-26T05:46:45.101Z,18.85
2022-08-26T05:52:07.904Z,16.60
2022-08-26T05:57:32.464Z,15.60
2022-08-26T06:02:54.699Z,14.93
2022-08-26T06:08:19.209Z,14.67
2022-08-26T06:13:45.140Z,18.03
2022-08-26T06:19:10.648Z,15.60
2022-08-26T06:24:50.828Z,15.10
2022-08-26T06:30:15.373Z,15.90
2022-08-26T06:35:38.444Z,15.18
2022-08-26T06:41:05.985Z,13.10
2022-08-26T06:46:31.607Z,17.98
2022-08-26T06:51:55.341Z,11.97
2022-08-26T06:57:18.326Z,13.18
2022-08-26T07:02:40.994Z,16.35
2022-08-26T07:08:06.039Z,11.03
2022-08-26T07:13:30.482Z,11.38
2022-08-26T07:18:55.138Z,15.55
2022-08-26T07:24:17.381Z,9.55
2022-08-26T07:29:40.870Z,11.25
2022-08-26T07:35:03.047Z,11.03
2022-08-26T07:40:26.382Z,15.63
2022-08-26T07:45:50.366Z,15.38
2022-08-26T07:51:12.810Z,18.02
2022-08-26T07:56:35.587Z,10.58
2022-08-26T08:02:00.251Z,7.85
2022-08-26T08:07:38.713Z,19.67
2022-08-26T08:12:47.239Z,11.78
2022-08-26T08:18:15.775Z,10.53
2022-08-26T08:23:37.000Z,8.13
2022-08-26T08:29:01.581Z,9.08
2022-08-26T08:34:25.797Z,8.70
2022-08-26T08:39:51.322Z,7.75
2022-08-26T08:45:36.561Z,12.18
2022-08-26T08:51:30.272Z,10.63
2022-08-26T08:57:20.194Z,13.65
2022-08-26T09:02:59.435Z,8.57
2022-08-26T09:08:29.195Z,14.40
2022-08-26T09:13:56.990Z,8.10
2022-08-26T09:19:24.988Z,11.83
2022-08-26T09:24:50.799Z,12.98
2022-08-26T09:30:18.200Z,13.10
2022-08-26T09:35:54.687Z,11.05
2022-08-26T09:41:27.424Z,10.60
2022-08-26T09:46:53.747Z,9.85
2022-08-26T09:52:29.385Z,9.63
2022-08-26T09:58:07.769Z,11.48
2022-08-26T10:03:34.434Z,7.22
2022-08-26T10:09:10.826Z,11.40
2022-08-26T10:14:39.945Z,13.57
2022-08-26T10:20:24.939Z,8.37
2022-08-26T10:25:54.344Z,7.87
2022-08-26T10:31:40.120Z,8.13
2022-08-26T10:37:18.676Z,12.00
2022-08-26T10:43:08.476Z,7.47
2022-08-26T10:48:35.305Z,12.40
2022-08-26T10:54:13.372Z,9.10
2022-08-26T10:59:52.527Z,10.83
2022-08-26T11:05:25.571Z,13.93
2022-08-26T11:11:04.097Z,11.80
2022-08-26T11:16:43.502Z,7.97
2022-08-26T11:27:56.583Z,12.47
2022-08-26T11:33:20.571Z,12.37
2022-08-26T11:38:49.653Z,10.53
2022-08-26T11:44:12.030Z,7.50
2022-08-26T11:49:38.273Z,8.03
2022-08-26T11:55:17.392Z,15.00
2022-08-26T12:00:52.277Z,11.47
2022-08-26T12:06:21.942Z,13.30
2022-08-26T12:11:47.859Z,11.12
2022-08-26T12:17:17.259Z,10.40
2022-08-26T12:22:48.231Z,9.17
2022-08-26T12:28:11.348Z,9.75
2022-08-26T12:33:38.866Z,7.03
2022-08-26T12:39:01.543Z,9.95
2022-08-26T12:44:53.736Z,11.83
2022-08-26T12:50:15.834Z,7.35
2022-08-26T12:55:55.335Z,9.23
2022-08-26T13:01:22.758Z,16.10
2022-08-26T13:06:47.009Z,9.83
2022-08-26T13:12:12.136Z,7.67
2022-08-26T13:17:36.430Z,10.32
2022-08-26T13:22:59.392Z,13.53
2022-08-26T13:28:22.203Z,6.53
2022-08-26T13:33:45.715Z,7.47
2022-08-26T13:39:10.141Z,11.18
2022-08-26T13:44:33.026Z,8.95
2022-08-26T13:49:56.830Z,7.80
2022-08-26T13:55:20.700Z,11.57
2022-08-26T14:00:43.886Z,8.80
2022-08-26T14:06:06.317Z,7.73
2022-08-26T14:11:36.988Z,10.67
2022-08-26T14:16:59.980Z,10.90
2022-08-26T14:22:20.333Z,7.55
2022-08-26T14:27:42.931Z,10.00
2022-08-26T14:33:09.262Z,8.70
2022-08-26T14:38:31.975Z,11.35
2022-08-26T14:43:59.459Z,12.30
2022-08-26T14:49:22.333Z,8.40
2022-08-26T14:54:45.170Z,6.87
2022-08-26T15:00:07.536Z,9.10
2022-08-26T15:05:30.949Z,8.00
2022-08-26T15:10:53.813Z,10.33
2022-08-26T15:16:17.435Z,8.20
2022-08-26T15:21:40.948Z,7.03
2022-08-26T15:27:03.430Z,10.10
2022-08-26T15:32:25.951Z,9.17
2022-08-26T15:37:48.793Z,8.85
2022-08-26T15:43:27.909Z,10.37
2022-08-26T15:48:35.888Z,8.83
2022-08-26T15:53:59.078Z,8.60
2022-08-26T15:59:22.908Z,7.23
2022-08-26T16:04:45.700Z,10.93
2022-08-26T16:10:08.039Z,10.77
2022-08-26T16:15:30.635Z,12.07
2022-08-26T16:21:13.162Z,6.33
2022-08-26T16:26:34.311Z,9.63
2022-08-26T16:31:57.219Z,8.23
2022-08-26T16:37:20.916Z,6.28
2022-08-26T16:42:44.104Z,6.75
2022-08-26T16:48:06.992Z,5.87
2022-08-26T16:53:31.780Z,10.17
2022-08-26T16:58:55.902Z,9.63
2022-08-26T17:04:32.599Z,7.73
2022-08-26T17:09:54.908Z,9.83
2022-08-26T17:15:18.888Z,7.07
2022-08-26T17:20:42.019Z,8.70
2022-08-26T17:26:04.336Z,11.20
2022-08-26T17:31:28.624Z,11.80
2022-08-26T17:36:51.000Z,15.63
2022-08-26T17:42:13.855Z,9.67
2022-08-26T17:47:36.590Z,7.50
2022-08-26T17:53:00.262Z,10.03
2022-08-26T17:58:24.565Z,7.83
2022-08-26T18:03:47.785Z,8.43
2022-08-26T18:09:10.953Z,9.37
2022-08-26T18:14:33.964Z,9.28
2022-08-26T18:19:56.147Z,43.65
2022-08-26T18:25:20.886Z,12.15
2022-08-26T18:30:43.697Z,11.60
2022-08-26T18:36:06.363Z,9.90
2022-08-26T18:41:30.309Z,14.97
2022-08-26T18:46:52.564Z,16.10
2022-08-26T18:52:15.228Z,13.07
2022-08-26T18:57:38.107Z,14.55
2022-08-26T19:03:00.412Z,8.40
2022-08-26T19:08:23.205Z,10.75
2022-08-26T19:13:45.534Z,10.13
2022-08-26T19:19:08.804Z,11.78
2022-08-26T19:24:33.480Z,7.12
2022-08-26T19:29:57.953Z,9.97
2022-08-26T19:35:21.034Z,6.67
2022-08-26T19:40:44.513Z,10.72
2022-08-26T19:46:07.184Z,11.88
2022-08-26T19:51:38.957Z,8.50
2022-08-26T19:57:01.204Z,9.23
2022-08-26T20:02:24.250Z,11.40
2022-08-26T20:07:46.837Z,9.37
2022-08-26T20:13:10.071Z,12.95
2022-08-26T20:18:50.153Z,9.47
2022-08-26T20:24:28.245Z,13.28
2022-08-26T20:29:52.161Z,13.53
2022-08-26T20:35:16.119Z,8.23
2022-08-26T20:40:38.497Z,11.68
2022-08-26T20:46:01.345Z,11.80
2022-08-26T20:51:24.985Z,10.90
2022-08-26T20:56:48.678Z,13.13
2022-08-26T21:02:11.200Z,14.70
2022-08-26T21:07:33.616Z,12.37
2022-08-26T21:12:56.353Z,8.33
2022-08-26T21:18:20.253Z,9.73
2022-08-26T21:23:42.782Z,9.47
2022-08-26T21:29:08.549Z,12.87
2022-08-26T21:34:32.056Z,10.13
2022-08-26T21:39:54.873Z,12.83
2022-08-26T21:45:18.555Z,9.93
2022-08-26T21:50:43.842Z,15.57
2022-08-26T21:56:08.265Z,10.70
2022-08-26T22:01:35.063Z,16.40
2022-08-26T22:07:07.209Z,10.08
2022-08-26T22:12:30.017Z,10.77
2022-08-26T22:17:53.475Z,16.30
2022-08-26T22:23:17.773Z,11.73
2022-08-26T22:28:41.118Z,11.90
2022-08-26T22:34:04.281Z,19.90
2022-08-26T22:39:29.559Z,9.40
2022-08-26T22:44:51.836Z,12.93
2022-08-26T22:50:14.400Z,15.20
2022-08-26T22:55:37.261Z,15.03
2022-08-26T23:01:01.770Z,11.97
2022-08-26T23:06:26.419Z,14.03
2022-08-26T23:11:50.060Z,15.90
2022-08-26T23:17:14.784Z,17.23
2022-08-26T23:22:37.579Z,15.70
2022-08-26T23:28:02.028Z,16.60
2022-08-26T23:33:25.047Z,15.30
2022-08-26T23:38:52.439Z,14.33
2022-08-26T23:44:11.862Z,13.03
2022-08-26T23:49:34.648Z,16.37
2022-08-26T23:54:58.503Z,11.53
